Decoded Metar for EHVK (VOLKEL RNLAFB in NETHERLANDS) (IATA:N/A) | Meteo·Mobile Aviation Weather
aviador You're here:

EHVK Decoded Metar

VOLKEL RNLAFB in NETHERLANDS
Report Time2019-03-22 13:25:00
UTC Time2019-03-22 13:58:49
Flight Rules vfr VFR
Wind150° at 05 kt
W.Decomp.*RWY 06: 0.1 kt HW 5.0 kt RCW
W.Rank150° ranks 25
Current wind is below 150° avg. (5.5)
Visibility9999 m
Phenomena:N/A
Clouds:N/A
Expected CloudBase > 6,000 ft AGL from Temp-Dew spread
CeilingNone
Temp18°C (ISA +3)
Dew Point03°C (37% RH)
AAT14.7°C
QNH1028 hPa
Density Alt39 ft
Elevation69 ft
Report Wrong Elevation
Raw Report
EHVK 221325Z AUTO 15005KT 110V220 9999 NCD 18/03 Q1028 BLU 16005KT
CAVOK=

Extra information for EHVK:More info

Metar Taf Metar & Taf Last 4 Metars F.Rules Stats Wind Profile Meteogram Temp Stats Airport Information Weather charts Add Link Nearby VenuesMetar ALERT Operation Metar Decoded Social comments